PWSweather.com
Personal Weather Stations
Station Observations
REBOX73
Petalia At Mount Pantokrator, CorfuGR 49081

Petalia At Mount PantokratorCorfuGR 49081

Lat: 39.747915, Lon: 19.841466

Elevation: 2132

Station Type: ws1080

http://pantokratoras-kerkyra.meteoclub.gr/

Latest ConditionsUpdated 7:00:01 PM GMT+01:01 Wednesday, Jan 18, 2017
Currently Today's Max Today's Min Today's Average
Temperature 39.6°F4.2°C 42.4°F5.8°C 39.6°F4.2°C 41.2°F5.1°C
Dew Point 38.8°F3.8°C 40.4°F4.7°C 33.7°F0.9°C 38.0°F3.3°C
Winds Calm Calm Calm Calm - Calm Calm
Wind Gusts -- -- - -
Humidity 97% 97% 71% 89%
Pressure 29.74 in1007.1 mb 29.80 in1009.1 mb 29.70 in1005.8 mb -
Precipitation - 1.04 in26.4 mm - -
Hour Temp Dew Point Humidity Winds Wind Gusts Pressure Precip Precip Rate Daily Precip Total
07:00 PM 39.6°F4.2°C 38.8°F3.8°C 97% Calm Calm -- 29.74 in1007.1 mb 0.08 in2.0 mm 0.00 in0.0 mm 1.04 in26.4 mm
06:45 PM 39.9°F4.4°C 38.9°F3.8°C 96% Calm Calm -- 29.74 in1007.1 mb 0.13 in3.3 mm 0.00 in0.0 mm 1.04 in26.4 mm
06:30 PM 40.5°F4.7°C 39.1°F3.9°C 95% Calm Calm -- 29.73 in1006.8 mb 0.15 in3.8 mm 0.00 in0.0 mm 1.03 in26.2 mm
06:15 PM 40.6°F4.8°C 39.6°F4.2°C 96% Calm Calm -- 29.73 in1006.8 mb 0.18 in4.6 mm 0.00 in0.0 mm 1.02 in25.9 mm
06:00 PM 40.3°F4.6°C 39.0°F3.9°C 95% Calm Calm -- 29.72 in1006.4 mb 0.18 in4.6 mm 0.01 in0.3 mm 0.96 in24.4 mm
05:45 PM 40.1°F4.5°C 38.8°F3.8°C 95% Calm Calm -- 29.72 in1006.4 mb 0.17 in4.3 mm 0.12 in3.0 mm 0.91 in23.1 mm
05:30 PM 39.9°F4.4°C 38.3°F3.5°C 94% Calm Calm -- 29.72 in1006.4 mb 0.14 in3.6 mm 0.04 in1.0 mm 0.86 in21.8 mm
05:15 PM 40.1°F4.5°C 38.5°F3.6°C 94% Calm Calm -- 29.71 in1006.1 mb 0.13 in3.3 mm 0.08 in2.0 mm 0.83 in21.1 mm
05:00 PM 40.5°F4.7°C 38.3°F3.5°C 92% Calm Calm -- 29.71 in1006.1 mb 0.11 in2.8 mm 0.03 in0.8 mm 0.78 in19.8 mm
04:45 PM 40.3°F4.6°C 37.6°F3.1°C 90% Calm Calm -- 29.71 in1006.1 mb 0.09 in2.3 mm 0.00 in0.0 mm 0.74 in18.8 mm
04:30 PM 39.9°F4.4°C 36.4°F2.4°C 87% Calm Calm -- 29.71 in1006.1 mb 0.09 in2.3 mm 0.04 in1.0 mm 0.72 in18.3 mm
04:15 PM 39.7°F4.3°C 35.9°F2.2°C 86% Calm Calm -- 29.73 in1006.8 mb 0.08 in2.0 mm 0.00 in0.0 mm 0.69 in17.5 mm
04:00 PM 40.3°F4.6°C 36.4°F2.4°C 86% Calm Calm -- 29.73 in1006.8 mb 0.08 in2.0 mm 0.01 in0.3 mm 0.67 in17.0 mm
03:45 PM 41.0°F5.0°C 37.1°F2.8°C 86% Calm Calm -- 29.73 in1006.8 mb 0.07 in1.8 mm 0.08 in2.0 mm 0.65 in16.5 mm
03:30 PM 41.2°F5.1°C 36.7°F2.6°C 84% Calm Calm -- 29.74 in1007.1 mb 0.05 in1.3 mm 0.12 in3.0 mm 0.63 in16.0 mm
03:15 PM 41.2°F5.1°C 36.1°F2.3°C 82% Calm Calm -- 29.75 in1007.5 mb 0.02 in0.5 mm 0.04 in1.0 mm 0.60 in15.2 mm
03:00 PM 41.5°F5.3°C 36.5°F2.5°C 82% Calm Calm -- 29.75 in1007.5 mb 0.01 in0.3 mm 0.01 in0.3 mm 0.59 in15.0 mm
02:45 PM 41.7°F5.4°C 36.3°F2.4°C 81% Calm Calm -- 29.75 in1007.5 mb 0.00 in0.0 mm 0.00 in0.0 mm 0.58 in14.7 mm
02:30 PM 41.9°F5.5°C 36.5°F2.5°C 81% Calm Calm -- 29.75 in1007.5 mb 0.00 in0.0 mm 0.00 in0.0 mm 0.58 in14.7 mm
02:15 PM 41.9°F5.5°C 37.1°F2.8°C 83% Calm Calm -- 29.75 in1007.5 mb 0.00 in0.0 mm 0.00 in0.0 mm 0.58 in14.7 mm
02:06 PM 41.2°F5.1°C 39.9°F4.4°C 95% Calm Calm -- 29.80 in1009.1 mb 0.07 in1.8 mm 0.70 in17.8 mm 0.48 in12.2 mm
02:00 PM 41.9°F5.5°C 37.7°F3.2°C 85% Calm Calm -- 29.76 in1007.8 mb 0.00 in0.0 mm 0.00 in0.0 mm 0.58 in14.7 mm
09:30 AM 41.2°F5.1°C 39.6°F4.2°C 94% Calm Calm -- 29.78 in1008.5 mb 0.05 in1.3 mm 0.00 in0.0 mm 0.43 in10.9 mm
09:15 AM 41.4°F5.2°C 40.0°F4.4°C 95% Calm Calm -- 29.78 in1008.5 mb 0.06 in1.5 mm 0.00 in0.0 mm 0.41 in10.4 mm
09:00 AM 41.4°F5.2°C 40.3°F4.6°C 96% Calm Calm -- 29.78 in1008.5 mb 0.06 in1.5 mm 0.00 in0.0 mm 0.40 in10.2 mm
08:45 AM 41.2°F5.1°C 40.1°F4.5°C 96% Calm Calm -- 29.77 in1008.1 mb 0.08 in2.0 mm 0.00 in0.0 mm 0.39 in9.9 mm
08:30 AM 41.0°F5.0°C 40.2°F4.6°C 97% Calm Calm -- 29.77 in1008.1 mb 0.09 in2.3 mm 0.04 in1.0 mm 0.38 in9.7 mm
08:15 AM 40.6°F4.8°C 39.6°F4.2°C 96% Calm Calm -- 29.77 in1008.1 mb 0.08 in2.0 mm 0.04 in1.0 mm 0.35 in8.9 mm
08:00 AM 40.3°F4.6°C 39.0°F3.9°C 95% Calm Calm -- 29.76 in1007.8 mb 0.07 in1.8 mm 0.01 in0.3 mm 0.34 in8.6 mm
07:45 AM 40.5°F4.7°C 39.1°F3.9°C 95% Calm Calm -- 29.76 in1007.8 mb 0.06 in1.5 mm 0.00 in0.0 mm 0.31 in7.9 mm
07:30 AM 41.0°F5.0°C 39.7°F4.3°C 95% Calm Calm -- 29.76 in1007.8 mb 0.09 in2.3 mm 0.00 in0.0 mm 0.28 in7.1 mm
07:15 AM 41.0°F5.0°C 39.4°F4.1°C 94% Calm Calm -- 29.76 in1007.8 mb 0.13 in3.3 mm 0.00 in0.0 mm 0.27 in6.9 mm
07:00 AM 41.0°F5.0°C 39.1°F3.9°C 93% Calm Calm -- 29.75 in1007.5 mb 0.15 in3.8 mm 0.01 in0.3 mm 0.27 in6.9 mm
06:45 AM 41.0°F5.0°C 38.9°F3.8°C 92% Calm Calm -- 29.75 in1007.5 mb 0.14 in3.6 mm 0.20 in5.1 mm 0.25 in6.4 mm
06:30 AM 41.2°F5.1°C 38.8°F3.8°C 91% Calm Calm -- 29.75 in1007.5 mb 0.09 in2.3 mm 0.12 in3.0 mm 0.19 in4.8 mm
06:15 AM 41.4°F5.2°C 38.7°F3.7°C 90% Calm Calm -- 29.74 in1007.1 mb 0.06 in1.5 mm 0.04 in1.0 mm 0.14 in3.6 mm
06:00 AM 41.4°F5.2°C 38.4°F3.6°C 89% Calm Calm -- 29.72 in1006.4 mb 0.05 in1.3 mm 0.00 in0.0 mm 0.12 in3.0 mm
05:45 AM 41.2°F5.1°C 37.6°F3.1°C 87% Calm Calm -- 29.72 in1006.4 mb 0.06 in1.5 mm 0.04 in1.0 mm 0.11 in2.8 mm
05:30 AM 41.4°F5.2°C 37.8°F3.2°C 87% Calm Calm -- 29.71 in1006.1 mb 0.05 in1.3 mm 0.04 in1.0 mm 0.09 in2.3 mm
05:15 AM 41.2°F5.1°C 37.3°F2.9°C 86% Calm Calm -- 29.70 in1005.8 mb 0.04 in1.0 mm 0.08 in2.0 mm 0.08 in2.0 mm
05:00 AM 41.0°F5.0°C 36.8°F2.7°C 85% Calm Calm -- 29.70 in1005.8 mb 0.02 in0.5 mm 0.00 in0.0 mm 0.06 in1.5 mm
04:45 AM 41.2°F5.1°C 36.7°F2.6°C 84% Calm Calm -- 29.70 in1005.8 mb 0.02 in0.5 mm 0.00 in0.0 mm 0.05 in1.3 mm
04:30 AM 41.4°F5.2°C 36.6°F2.6°C 83% Calm Calm -- 29.70 in1005.8 mb 0.02 in0.5 mm 0.00 in0.0 mm 0.05 in1.3 mm
04:15 AM 41.4°F5.2°C 36.3°F2.4°C 82% Calm Calm -- 29.71 in1006.1 mb 0.04 in1.0 mm 0.08 in2.0 mm 0.05 in1.3 mm
04:00 AM 41.4°F5.2°C 35.3°F1.8°C 79% Calm Calm -- 29.70 in1005.8 mb 0.02 in0.5 mm 0.00 in0.0 mm 0.04 in1.0 mm
03:45 AM 41.7°F5.4°C 34.7°F1.5°C 76% Calm Calm -- 29.70 in1005.8 mb 0.02 in0.5 mm 0.00 in0.0 mm 0.02 in0.5 mm
03:30 AM 42.1°F5.6°C 33.7°F0.9°C 72% Calm Calm -- 29.70 in1005.8 mb 0.02 in0.5 mm 0.04 in1.0 mm 0.02 in0.5 mm
03:15 AM 42.4°F5.8°C 33.7°F0.9°C 71% Calm Calm -- 29.70 in1005.8 mb 0.01 in0.3 mm 0.00 in0.0 mm 0.01 in0.3 mm
03:00 AM 42.3°F5.7°C 33.9°F1.1°C 72% Calm Calm -- 29.70 in1005.8 mb 0.01 in0.3 mm 0.01 in0.3 mm 0.01 in0.3 mm
02:45 AM 42.1°F5.6°C 34.4°F1.3°C 74% Calm Calm -- 29.70 in1005.8 mb 0.00 in0.0 mm 0.00 in0.0 mm 0.00 in0.0 mm
02:30 AM 42.1°F5.6°C 34.7°F1.5°C 75% Calm Calm -- 29.71 in1006.1 mb 0.00 in0.0 mm 0.00 in0.0 mm 0.00 in0.0 mm
02:15 AM 41.9°F5.5°C 34.9°F1.6°C 76% Calm Calm -- 29.71 in1006.1 mb 0.00 in0.0 mm 0.00 in0.0 mm 0.00 in0.0 mm
02:00 AM 41.7°F5.4°C 35.1°F1.7°C 77% Calm Calm -- 29.70 in1005.8 mb 0.00 in0.0 mm 0.00 in0.0 mm 0.00 in0.0 mm
01:45 AM 41.7°F5.4°C 35.7°F2.1°C 79% Calm Calm -- 29.70 in1005.8 mb 0.00 in0.0 mm 0.00 in0.0 mm 0.00 in0.0 mm
01:30 AM 41.7°F5.4°C 36.3°F2.4°C 81% Calm Calm -- 29.71 in1006.1 mb 0.00 in0.0 mm 0.00 in0.0 mm 0.00 in0.0 mm
01:15 AM 41.4°F5.2°C 36.3°F2.4°C 82% Calm Calm -- 29.71 in1006.1 mb 0.00 in0.0 mm 0.00 in0.0 mm 0.00 in0.0 mm
01:00 AM 41.4°F5.2°C 36.9°F2.7°C 84% Calm Calm -- 29.71 in1006.1 mb 0.00 in0.0 mm 0.00 in0.0 mm 0.00 in0.0 mm
12:45 AM 41.4°F5.2°C 36.6°F2.6°C 83% Calm Calm -- 29.71 in1006.1 mb 0.00 in0.0 mm 0.00 in0.0 mm 0.00 in0.0 mm
12:30 AM 41.2°F5.1°C 36.7°F2.6°C 84% Calm Calm -- 29.71 in1006.1 mb 0.00 in0.0 mm 0.00 in0.0 mm 0.00 in0.0 mm
12:15 AM 41.2°F5.1°C 37.0°F2.8°C 85% Calm Calm -- 29.71 in1006.1 mb 0.00 in0.0 mm 0.00 in0.0 mm 0.00 in0.0 mm
12:00 AM 41.0°F5.0°C 37.4°F3.0°C 87% Calm Calm -- 29.72 in1006.4 mb 0.00 in0.0 mm 0.00 in0.0 mm 0.00 in0.0 mm